Time;durP1;ratioP1;P1;durP2;ratioP2;P2;SDS_P1;SDS_P2;PMS_P1;PMS_P2;Temp;Humidity;BMP_temperature;BMP_pressure;BME280_temperature;BME280_humidity;BME280_pressure;Samples;Min_cycle;Max_cycle;Signal;HPM_P1;HPM_P2
2022/03/03 00:08:34;;;;;;;7.15;5.82;;;;;;;-148.93;100.00;62180.91;20761992;28;20056;-80
2022/03/03 00:18:49;;;;;;;8.15;6.20;;;;;;;-148.93;100.00;62180.91;20777487;28;20161;-80
2022/03/03 00:29:01;;;;;;;6.88;5.38;;;;;;;-148.93;100.00;62180.91;20753335;28;20147;-79
2022/03/03 00:39:23;;;;;;;6.57;5.40;;;;;;;-148.93;100.00;62180.91;20761366;28;20048;-79
2022/03/03 00:49:47;;;;;;;7.95;6.07;;;;;;;-148.93;100.00;62180.91;20761402;28;20050;-81
2022/03/03 01:00:13;;;;;;;7.22;5.63;;;;;;;-148.93;100.00;62180.91;20774493;28;20050;-79
2022/03/03 01:10:34;;;;;;;7.13;5.68;;;;;;;-148.93;100.00;62180.91;20775986;28;20049;-80
2022/03/03 01:20:47;;;;;;;8.75;6.43;;;;;;;-148.93;100.00;62180.91;20727385;28;20069;-80
2022/03/03 01:31:04;;;;;;;7.78;5.82;;;;;;;-148.93;100.00;62180.91;20763004;28;20052;-80
2022/03/03 01:41:27;;;;;;;7.60;5.90;;;;;;;-148.93;100.00;62180.91;20767013;28;20049;-81
2022/03/03 01:51:33;;;;;;;7.43;5.45;;;;;;;-148.93;100.00;62180.91;20782754;28;20224;-80
2022/03/03 02:02:10;;;;;;;6.53;5.35;;;;;;;-148.93;100.00;62180.91;20781916;28;20056;-80
2022/03/03 02:12:24;;;;;;;7.75;5.85;;;;;;;-148.93;100.00;62180.91;20780280;28;20103;-80
2022/03/03 02:22:41;;;;;;;7.57;5.53;;;;;;;-148.93;100.00;62180.91;20747240;28;20128;-81
2022/03/03 02:32:58;;;;;;;7.22;5.72;;;;;;;-148.93;100.00;62180.91;20779032;28;20467;-80
2022/03/03 02:43:25;;;;;;;8.30;6.18;;;;;;;-148.93;100.00;62180.91;20776923;28;20048;-79
2022/03/03 02:53:33;;;;;;;7.00;4.95;;;;;;;-148.93;100.00;62180.91;20751638;28;20049;-80
2022/03/03 03:03:42;;;;;;;7.57;5.95;;;;;;;-148.93;100.00;62180.91;20770692;28;20037;-80
2022/03/03 03:13:56;;;;;;;6.88;5.65;;;;;;;-148.93;100.00;62180.91;20766396;28;20049;-80
2022/03/03 03:24:30;;;;;;;6.55;5.45;;;;;;;-148.93;100.00;62180.91;20724396;28;20053;-80
2022/03/03 03:34:52;;;;;;;7.27;5.50;;;;;;;-148.93;100.00;62180.91;20761663;28;20099;-79
2022/03/03 03:44:59;;;;;;;8.35;6.50;;;;;;;-148.93;100.00;62180.91;20784372;28;20315;-80
2022/03/03 03:55:12;;;;;;;7.60;6.18;;;;;;;-148.93;100.00;62180.91;20733791;28;20151;-80
2022/03/03 04:05:27;;;;;;;7.18;5.75;;;;;;;-148.93;100.00;62180.91;20681872;28;20041;-80
2022/03/03 04:15:44;;;;;;;6.78;5.45;;;;;;;-148.93;100.00;62180.91;20659140;28;20053;-80
2022/03/03 04:26:00;;;;;;;7.40;5.60;;;;;;;-148.93;100.00;62180.91;20613372;28;20392;-80
2022/03/03 04:36:09;;;;;;;7.70;5.53;;;;;;;-148.93;100.00;62180.91;20599363;28;20050;-80
2022/03/03 04:46:28;;;;;;;6.65;5.10;;;;;;;-148.93;100.00;62180.91;20641181;28;20053;-79
2022/03/03 04:57:08;;;;;;;7.05;5.13;;;;;;;-148.93;100.00;62180.91;20716800;28;20056;-80
2022/03/03 05:07:45;;;;;;;6.15;4.80;;;;;;;-148.93;100.00;62180.91;20787851;28;20298;-80
2022/03/03 05:18:15;;;;;;;7.60;4.90;;;;;;;-148.93;100.00;62180.91;20784728;28;20049;-80
2022/03/03 05:28:31;;;;;;;5.97;4.90;;;;;;;-148.93;100.00;62180.91;20788607;28;20494;-80
2022/03/03 05:39:11;;;;;;;5.45;4.70;;;;;;;-148.93;100.00;62180.91;20793489;28;20041;-80
2022/03/03 05:49:25;;;;;;;5.97;4.93;;;;;;;-148.93;100.00;62180.91;20757574;28;20049;-81
2022/03/03 05:59:53;;;;;;;5.85;4.68;;;;;;;-148.93;100.00;62180.91;20785372;28;20119;-79
2022/03/03 06:10:16;;;;;;;5.20;3.92;;;;;;;-148.93;100.00;62180.91;20770562;28;20383;-82
2022/03/03 06:20:57;;;;;;;5.15;4.13;;;;;;;-148.93;100.00;62180.91;20817280;28;20108;-81
2022/03/03 06:31:33;;;;;;;5.25;4.03;;;;;;;-148.93;100.00;62180.91;20776765;28;20064;-81
2022/03/03 06:41:51;;;;;;;5.85;4.07;;;;;;;-148.93;100.00;62180.91;20768941;28;20052;-80
2022/03/03 06:52:16;;;;;;;4.18;3.33;;;;;;;-148.93;100.00;62180.91;20766568;28;20053;-80
2022/03/03 07:02:39;;;;;;;5.35;3.80;;;;;;;-148.93;100.00;62180.91;20764940;28;20045;-80
2022/03/03 07:13:02;;;;;;;4.60;3.67;;;;;;;-148.93;100.00;62180.91;20796663;28;20061;-81
2022/03/03 07:23:48;;;;;;;5.35;4.18;;;;;;;-148.93;100.00;62180.91;20781441;28;20052;-81
2022/03/03 07:34:23;;;;;;;5.07;4.53;;;;;;;-148.93;100.00;62180.91;20778903;28;20525;-81
2022/03/03 07:44:48;;;;;;;5.82;5.10;;;;;;;-148.93;100.00;62180.91;20810771;28;20061;-81
2022/03/03 07:55:56;;;;;;;4.78;3.70;;;;;;;-148.93;100.00;62180.91;20824705;28;20041;-81
2022/03/03 08:06:29;;;;;;;5.60;4.07;;;;;;;-148.93;100.00;62180.91;20779005;28;20277;-81
2022/03/03 08:17:18;;;;;;;3.80;3.33;;;;;;;-148.93;100.00;62180.91;20822966;28;20060;-81
2022/03/03 08:27:40;;;;;;;4.85;3.83;;;;;;;-148.93;100.00;62180.91;20791736;28;20430;-82
2022/03/03 08:38:09;;;;;;;5.20;3.40;;;;;;;-148.93;100.00;62180.91;20778969;28;20030;-81
2022/03/03 08:48:15;;;;;;;3.92;3.05;;;;;;;-148.93;100.00;62180.91;20788627;28;20103;-82
2022/03/03 08:58:24;;;;;;;3.80;3.38;;;;;;;-148.93;100.00;62180.91;20773673;28;20141;-82
2022/03/03 09:08:31;;;;;;;3.65;3.30;;;;;;;-148.93;100.00;62180.91;20804077;28;20048;-81
2022/03/03 09:18:45;;;;;;;3.97;2.92;;;;;;;-148.93;100.00;62180.91;20788032;28;20143;-82
2022/03/03 09:29:17;;;;;;;7.88;4.35;;;;;;;-148.93;100.00;62180.91;20808442;28;20115;-81
2022/03/03 09:39:32;;;;;;;4.47;3.08;;;;;;;-148.93;100.00;62180.91;20787637;28;20073;-83
2022/03/03 09:49:51;;;;;;;6.25;4.03;;;;;;;-148.93;100.00;62180.91;20786855;28;20041;-82
2022/03/03 10:00:09;;;;;;;6.67;3.87;;;;;;;-148.93;100.00;62180.91;20817710;28;20152;-83
2022/03/03 10:10:25;;;;;;;5.30;3.58;;;;;;;-148.93;100.00;62180.91;20786345;28;20062;-83
2022/03/03 10:21:02;;;;;;;5.03;3.42;;;;;;;-148.93;100.00;62180.91;20757548;28;20077;-82
2022/03/03 10:31:20;;;;;;;5.22;3.63;;;;;;;-148.93;100.00;62180.91;20773347;28;20049;-87
2022/03/03 10:41:51;;;;;;;5.40;3.78;;;;;;;-148.93;100.00;62180.91;20799260;28;20042;-83
2022/03/03 10:52:32;;;;;;;4.72;3.53;;;;;;;-148.93;100.00;62180.91;20783383;28;20049;-83
2022/03/03 11:03:04;;;;;;;6.28;4.07;;;;;;;-148.93;100.00;62180.91;20779524;28;20053;-83
2022/03/03 11:14:08;;;;;;;6.50;3.85;;;;;;;-148.93;100.00;62180.91;20822319;28;20064;-83
2022/03/03 11:25:08;;;;;;;6.28;3.65;;;;;;;-148.93;100.00;62180.91;20828594;28;20073;-83
2022/03/03 11:35:47;;;;;;;4.43;3.55;;;;;;;-148.93;100.00;62180.91;20799874;28;20083;-83
2022/03/03 11:46:00;;;;;;;4.68;3.53;;;;;;;-148.93;100.00;62180.91;20778337;28;20069;-83
2022/03/03 11:56:10;;;;;;;5.13;3.30;;;;;;;-148.93;100.00;62180.91;20757007;28;20046;-83
2022/03/03 12:06:23;;;;;;;5.28;3.75;;;;;;;-148.93;100.00;62180.91;20761784;28;20100;-83
2022/03/03 12:16:33;;;;;;;4.07;3.40;;;;;;;-148.93;100.00;62180.91;20760605;28;20132;-83
2022/03/03 12:26:54;;;;;;;5.05;3.30;;;;;;;-148.93;100.00;62180.91;20757546;28;20376;-84
2022/03/03 12:37:07;;;;;;;4.25;3.40;;;;;;;-148.93;100.00;62180.91;20789023;28;20042;-83
2022/03/03 12:47:59;;;;;;;4.30;3.50;;;;;;;-148.93;100.00;62180.91;20782564;28;20053;-84
2022/03/03 12:58:29;;;;;;;4.80;3.22;;;;;;;-148.93;100.00;62180.91;20789668;28;20053;-83
2022/03/03 13:08:41;;;;;;;5.68;3.75;;;;;;;-148.93;100.00;62180.91;20790024;28;20053;-83
2022/03/03 13:19:17;;;;;;;4.47;3.15;;;;;;;-148.93;100.00;62180.91;20773986;28;20052;-83
2022/03/03 13:30:14;;;;;;;5.97;2.97;;;;;;;-148.93;100.00;62180.91;20792760;28;20095;-83
2022/03/03 13:40:49;;;;;;;3.97;2.92;;;;;;;-148.93;100.00;62180.91;20790402;28;20052;-81
2022/03/03 13:52:21;;;;;;;5.20;3.08;;;;;;;-148.93;100.00;62180.91;20789283;28;20061;-82
2022/03/03 14:03:21;;;;;;;3.78;2.83;;;;;;;-148.93;100.00;62180.91;20761286;28;20045;-83
2022/03/03 14:14:16;;;;;;;4.15;3.08;;;;;;;-148.93;100.00;62180.91;20778322;28;20525;-82
2022/03/03 14:25:09;;;;;;;4.93;3.17;;;;;;;-148.93;100.00;62180.91;20837436;28;20064;-86
2022/03/03 14:36:12;;;;;;;3.72;2.63;;;;;;;-148.93;100.00;62180.91;20817134;28;20415;-81
2022/03/03 14:47:30;;;;;;;5.70;3.77;;;;;;;-148.93;100.00;62180.91;20842790;28;20071;-83
2022/03/03 14:58:37;;;;;;;4.97;2.97;;;;;;;-148.93;100.00;62180.91;20882249;28;20057;-83
2022/03/03 15:09:26;;;;;;;3.28;2.42;;;;;;;-148.93;100.00;62180.91;20821315;28;20149;-82
2022/03/03 15:19:58;;;;;;;5.38;2.60;;;;;;;-148.93;100.00;62180.91;20807323;28;20052;-81
2022/03/03 15:30:47;;;;;;;3.28;2.38;;;;;;;-148.93;100.00;62180.91;20789499;28;20100;-81
2022/03/03 15:41:22;;;;;;;3.10;2.45;;;;;;;-148.93;100.00;62180.91;20765373;28;20067;-82
2022/03/03 15:52:05;;;;;;;4.20;2.60;;;;;;;-148.93;100.00;62180.91;20800058;28;20549;-82
2022/03/03 16:13:13;;;;;;;5.70;2.90;;;;;;;-148.93;100.00;62180.91;20770709;28;20042;-82
2022/03/03 16:23:48;;;;;;;3.08;2.30;;;;;;;-148.93;100.00;62180.91;20776835;28;20049;-82
2022/03/03 16:44:56;;;;;;;4.75;2.38;;;;;;;-148.93;100.00;62180.91;20768034;28;20045;-82
2022/03/03 16:55:07;;;;;;;3.67;2.50;;;;;;;-148.93;100.00;62180.91;20784002;28;20081;-81
2022/03/03 17:05:24;;;;;;;3.55;2.33;;;;;;;-148.93;100.00;62180.91;20759795;28;20239;-82
2022/03/03 17:16:09;;;;;;;4.07;2.25;;;;;;;-148.93;100.00;62180.91;20809381;28;20057;-80
2022/03/03 17:26:29;;;;;;;3.85;2.22;;;;;;;-148.93;100.00;62180.91;20806467;28;20053;-82
2022/03/03 17:36:44;;;;;;;3.17;2.30;;;;;;;-148.93;100.00;62180.91;20792265;28;20068;-81
2022/03/03 17:46:58;;;;;;;4.10;3.08;;;;;;;-148.93;100.00;62180.91;20790429;28;20084;-82
2022/03/03 17:57:36;;;;;;;3.42;2.30;;;;;;;-148.93;100.00;62180.91;20800107;28;20048;-82
2022/03/03 18:07:53;;;;;;;3.28;2.35;;;;;;;-148.93;100.00;62180.91;20884991;28;20076;-82
2022/03/03 18:18:12;;;;;;;;;;;;;;;-148.93;100.00;62180.91;20900087;28;20051;-82
2022/03/03 18:28:31;;;;;;;2.78;2.20;;;;;;;-148.93;100.00;62180.91;20915734;28;19917;-83
2022/03/03 18:38:37;;;;;;;4.50;2.65;;;;;;;-148.93;100.00;62180.91;20881768;28;20521;-84
2022/03/03 18:48:48;;;;;;;3.10;2.40;;;;;;;-148.93;100.00;62180.91;20883137;28;20244;-83
2022/03/03 18:59:16;;;;;;;3.00;2.17;;;;;;;-148.93;100.00;62180.91;20897171;28;20056;-83
2022/03/03 19:09:27;;;;;;;3.53;2.20;;;;;;;-148.93;100.00;62180.91;20877731;28;20098;-84
2022/03/03 19:19:50;;;;;;;3.38;2.30;;;;;;;-148.93;100.00;62180.91;20883785;28;20049;-83
2022/03/03 19:30:23;;;;;;;3.25;2.10;;;;;;;-148.93;100.00;62180.91;20883596;28;20084;-83
2022/03/03 19:40:35;;;;;;;2.92;1.83;;;;;;;-148.93;100.00;62180.91;20880575;28;20048;-83
2022/03/03 19:50:57;;;;;;;2.88;2.05;;;;;;;-148.93;100.00;62180.91;20883691;28;20052;-83
2022/03/03 20:01:28;;;;;;;3.25;2.03;;;;;;;-148.93;100.00;62180.91;20901345;28;20060;-83
2022/03/03 20:11:46;;;;;;;2.53;2.10;;;;;;;-148.93;100.00;62180.91;20900517;28;20407;-83
2022/03/03 20:21:56;;;;;;;4.38;2.63;;;;;;;-148.93;100.00;62180.91;20835574;28;20041;-85
2022/03/03 20:32:23;;;;;;;3.17;2.38;;;;;;;-148.93;100.00;62180.91;20814377;28;20048;-86
2022/03/03 20:42:57;;;;;;;3.30;2.30;;;;;;;-148.93;100.00;62180.91;20814610;28;20045;-85
2022/03/03 20:53:39;;;;;;;3.05;2.45;;;;;;;-148.93;100.00;62180.91;20803701;28;20557;-82
2022/03/03 21:03:55;;;;;;;4.25;2.88;;;;;;;-148.93;100.00;62180.91;20805498;28;20069;-85
2022/03/03 21:14:17;;;;;;;3.78;2.72;;;;;;;-148.93;100.00;62180.91;20813771;28;20051;-85
2022/03/03 21:24:32;;;;;;;4.80;3.03;;;;;;;-148.93;100.00;62180.91;20790754;28;20050;-84
2022/03/03 21:34:56;;;;;;;4.20;2.72;;;;;;;-148.93;100.00;62180.91;20802837;28;20376;-85
2022/03/03 21:45:10;;;;;;;4.20;2.95;;;;;;;-148.93;100.00;62180.91;20833607;28;20041;-84
2022/03/03 21:55:31;;;;;;;3.85;3.05;;;;;;;-148.93;100.00;62180.91;20819267;28;20049;-85
2022/03/03 22:05:41;;;;;;;4.45;2.92;;;;;;;-148.93;100.00;62180.91;20801618;28;20061;-84
2022/03/03 22:16:04;;;;;;;3.92;3.10;;;;;;;-148.93;100.00;62180.91;20807051;28;20067;-86
2022/03/03 22:26:17;;;;;;;3.80;2.92;;;;;;;-148.93;100.00;62180.91;20807017;28;20053;-86
2022/03/03 22:36:47;;;;;;;4.35;3.03;;;;;;;-148.93;100.00;62180.91;20822526;28;20053;-85
2022/03/03 22:46:56;;;;;;;3.97;2.75;;;;;;;-148.93;100.00;62180.91;20800632;28;20155;-85
2022/03/03 22:57:09;;;;;;;4.05;2.78;;;;;;;-148.93;100.00;62180.91;20786087;28;20058;-86
2022/03/03 23:07:35;;;;;;;4.20;2.80;;;;;;;-148.93;100.00;62180.91;20812456;28;20049;-85
2022/03/03 23:17:52;;;;;;;3.45;2.50;;;;;;;-148.93;100.00;62180.91;20798474;28;20133;-84
2022/03/03 23:28:04;;;;;;;4.05;2.28;;;;;;;-148.93;100.00;62180.91;20798275;28;20087;-83
2022/03/03 23:38:19;;;;;;;3.60;2.50;;;;;;;-148.93;100.00;62180.91;20795081;28;20111;-83
2022/03/03 23:48:28;;;;;;;2.38;1.98;;;;;;;-148.93;100.00;62180.91;20777937;28;20049;-84
2022/03/03 23:58:43;;;;;;;3.58;2.35;;;;;;;-148.93;100.00;62180.91;20794368;28;20057;-81
